createdAt,value
2022-09-21T00:00:25.959Z,102441.91
2022-09-21T00:10:50.242Z,102443.53
2022-09-21T00:21:14.288Z,102436.28
2022-09-21T00:31:35.937Z,102442.41
2022-09-21T00:41:57.466Z,102433.91
2022-09-21T00:52:20.497Z,102444.47
2022-09-21T01:02:42.960Z,102442.81
2022-09-21T01:13:16.983Z,102453.53
2022-09-21T01:24:00.961Z,102457.84
2022-09-21T01:34:31.015Z,102463.91
2022-09-21T01:44:55.589Z,102457.03
2022-09-21T01:55:23.202Z,102460.63
2022-09-21T02:05:45.533Z,102461.03
2022-09-21T02:16:07.007Z,102461.13
2022-09-21T02:26:45.411Z,102463.16
2022-09-21T02:37:32.629Z,102454.91
2022-09-21T02:48:00.117Z,102459.22
2022-09-21T02:58:24.480Z,102456.13
2022-09-21T03:08:45.923Z,102456.78
2022-09-21T03:19:07.510Z,102460.09
2022-09-21T03:29:29.038Z,102476.97
2022-09-21T03:39:50.458Z,102477.19
2022-09-21T03:50:12.045Z,102473.84
2022-09-21T04:00:34.153Z,102483.53
2022-09-21T04:10:56.399Z,102478.47
2022-09-21T04:21:19.203Z,102480.34
2022-09-21T04:31:41.426Z,102480.50
2022-09-21T04:42:02.999Z,102482.19
2022-09-21T04:52:24.505Z,102483.78
2022-09-21T05:02:45.971Z,102492.75
2022-09-21T05:13:07.547Z,102496.88
2022-09-21T05:23:30.985Z,102504.72
2022-09-21T05:33:58.731Z,102511.63
2022-09-21T05:44:21.604Z,102525.47
2022-09-21T05:55:01.910Z,102525.66
2022-09-21T06:05:23.999Z,102534.66
2022-09-21T06:15:46.242Z,102543.47
2022-09-21T06:26:07.670Z,102552.94
2022-09-21T06:36:29.663Z,102557.44
2022-09-21T06:46:51.019Z,102551.34
2022-09-21T06:57:12.462Z,102546.25
2022-09-21T07:07:34.404Z,102554.16
2022-09-21T07:18:05.537Z,102555.75
2022-09-21T07:28:27.278Z,102552.63
2022-09-21T07:38:48.712Z,102562.94
2022-09-21T07:49:11.678Z,102565.72
2022-09-21T07:59:33.209Z,102563.75
2022-09-21T08:09:54.709Z,102561.94
2022-09-21T08:20:16.255Z,102571.56
2022-09-21T08:30:37.978Z,102577.28
2022-09-21T08:41:01.657Z,102578.47
2022-09-21T08:51:31.960Z,102568.59
2022-09-21T09:02:24.579Z,102579.88
2022-09-21T09:13:41.926Z,102584.03
2022-09-21T09:24:11.177Z,102595.50
2022-09-21T09:34:37.861Z,102585.91
2022-09-21T09:45:02.307Z,102582.22
2022-09-21T09:55:30.236Z,102578.06
2022-09-21T10:05:53.686Z,102586.91
2022-09-21T10:16:18.204Z,102578.44
2022-09-21T10:27:12.377Z,102589.22
2022-09-21T10:37:37.554Z,102582.38
2022-09-21T10:48:18.241Z,102578.22
2022-09-21T10:58:39.697Z,102567.19
2022-09-21T11:09:08.945Z,102562.19
2022-09-21T11:19:38.833Z,102559.66
2022-09-21T11:30:09.613Z,102560.03
2022-09-21T11:40:54.390Z,102547.78
2022-09-21T11:51:39.446Z,102550.75
2022-09-21T12:02:22.394Z,102543.13
2022-09-21T12:12:49.601Z,102536.97
2022-09-21T12:23:17.457Z,102532.38
2022-09-21T12:33:46.925Z,102529.03
2022-09-21T12:44:25.930Z,102515.59
2022-09-21T12:54:59.568Z,102516.19
2022-09-21T13:05:26.802Z,102504.41
2022-09-21T13:15:50.126Z,102497.91
2022-09-21T13:26:13.745Z,102500.44
2022-09-21T13:36:36.535Z,102488.00
2022-09-21T13:46:58.549Z,102484.00
2022-09-21T13:57:32.120Z,102471.78
2022-09-21T14:08:01.479Z,102484.56
2022-09-21T14:18:37.626Z,102467.19
2022-09-21T14:29:08.275Z,102457.63
2022-09-21T14:39:33.575Z,102455.28
2022-09-21T14:50:15.490Z,102450.06
2022-09-21T15:00:43.422Z,102441.13
2022-09-21T15:11:22.391Z,102434.47
2022-09-21T15:21:52.404Z,102433.19
2022-09-21T15:32:34.206Z,102423.66
2022-09-21T15:43:01.571Z,102416.94
2022-09-21T15:53:27.646Z,102421.63
2022-09-21T16:04:02.280Z,102412.88
2022-09-21T16:14:42.458Z,102408.91
2022-09-21T16:25:37.225Z,102410.44
2022-09-21T16:35:58.823Z,102407.16
2022-09-21T16:46:20.357Z,102416.31
2022-09-21T16:56:42.048Z,102415.84
2022-09-21T17:07:06.879Z,102416.91
2022-09-21T17:17:29.618Z,102408.50
2022-09-21T17:27:53.040Z,102406.72
2022-09-21T17:38:14.963Z,102407.78
2022-09-21T17:48:39.291Z,102414.97
2022-09-21T17:59:02.915Z,102408.56
2022-09-21T18:09:24.781Z,102407.59
2022-09-21T18:20:20.418Z,102415.22
2022-09-21T18:30:50.598Z,102418.28
2022-09-21T18:41:34.024Z,102412.53
2022-09-21T18:52:28.029Z,102415.66
2022-09-21T19:03:12.734Z,102412.72
2022-09-21T19:13:41.242Z,102415.16
2022-09-21T19:24:21.575Z,102419.06
2022-09-21T19:34:43.822Z,102419.50
2022-09-21T19:45:22.711Z,102424.56
2022-09-21T19:56:03.864Z,102427.78
2022-09-21T20:06:34.268Z,102427.75
2022-09-21T20:17:00.846Z,102424.53
2022-09-21T20:27:32.941Z,102426.16
2022-09-21T20:37:58.622Z,102423.50
2022-09-21T20:48:22.972Z,102428.78
2022-09-21T20:58:44.430Z,102431.81
2022-09-21T21:09:06.074Z,102433.84
2022-09-21T21:19:27.769Z,102430.34
2022-09-21T21:29:51.212Z,102430.16
2022-09-21T21:40:12.733Z,102430.00
2022-09-21T21:50:35.881Z,102426.00
2022-09-21T22:01:08.077Z,102424.13
2022-09-21T22:11:31.002Z,102421.50
2022-09-21T22:21:54.411Z,102421.19
2022-09-21T22:32:16.614Z,102422.97
2022-09-21T22:42:37.960Z,102419.22
2022-09-21T22:52:59.392Z,102423.06
2022-09-21T23:03:20.844Z,102420.25
2022-09-21T23:13:42.986Z,102413.09
2022-09-21T23:24:05.378Z,102414.19
2022-09-21T23:34:26.962Z,102410.31
2022-09-21T23:44:48.394Z,102407.03
2022-09-21T23:55:09.868Z,102396.84
